sensor_id;sensor_type;location;lat;lon;timestamp;P1;durP1;ratioP1;P2;durP2;ratioP2
47605;SDS011;55448;51.330;4.946;2022-08-19T00:00:27;29.63;;;26.45;;
47605;SDS011;55448;51.330;4.946;2022-08-19T00:02:53;30.58;;;27.35;;
47605;SDS011;55448;51.330;4.946;2022-08-19T00:05:20;30.75;;;27.73;;
47605;SDS011;55448;51.330;4.946;2022-08-19T00:07:47;29.77;;;26.13;;
47605;SDS011;55448;51.330;4.946;2022-08-19T00:10:13;33.92;;;28.35;;
47605;SDS011;55448;51.330;4.946;2022-08-19T00:12:42;30.40;;;26.33;;
47605;SDS011;55448;51.330;4.946;2022-08-19T00:15:09;31.55;;;28.08;;
47605;SDS011;55448;51.330;4.946;2022-08-19T00:17:41;29.73;;;26.70;;
47605;SDS011;55448;51.330;4.946;2022-08-19T00:22:35;34.95;;;28.10;;
47605;SDS011;55448;51.330;4.946;2022-08-19T00:25:02;33.90;;;28.88;;
47605;SDS011;55448;51.330;4.946;2022-08-19T00:27:29;30.92;;;27.63;;
47605;SDS011;55448;51.330;4.946;2022-08-19T00:29:54;29.40;;;26.58;;
47605;SDS011;55448;51.330;4.946;2022-08-19T00:32:20;34.50;;;28.40;;
47605;SDS011;55448;51.330;4.946;2022-08-19T00:34:46;35.03;;;31.40;;
47605;SDS011;55448;51.330;4.946;2022-08-19T00:37:12;35.22;;;29.27;;
47605;SDS011;55448;51.330;4.946;2022-08-19T00:39:37;41.53;;;31.88;;
47605;SDS011;55448;51.330;4.946;2022-08-19T00:42:03;40.35;;;30.00;;
47605;SDS011;55448;51.330;4.946;2022-08-19T00:44:31;40.10;;;32.25;;
47605;SDS011;55448;51.330;4.946;2022-08-19T00:46:57;39.10;;;33.92;;
47605;SDS011;55448;51.330;4.946;2022-08-19T00:52:00;39.88;;;35.58;;
47605;SDS011;55448;51.330;4.946;2022-08-19T00:54:52;37.83;;;33.80;;
47605;SDS011;55448;51.330;4.946;2022-08-19T00:57:18;44.10;;;35.85;;
47605;SDS011;55448;51.330;4.946;2022-08-19T01:02:17;39.92;;;35.63;;
47605;SDS011;55448;51.330;4.946;2022-08-19T01:04:43;42.17;;;37.58;;
47605;SDS011;55448;51.330;4.946;2022-08-19T01:07:09;43.17;;;38.47;;
47605;SDS011;55448;51.330;4.946;2022-08-19T01:09:35;44.85;;;37.75;;
47605;SDS011;55448;51.330;4.946;2022-08-19T01:12:01;43.35;;;38.20;;
47605;SDS011;55448;51.330;4.946;2022-08-19T01:14:27;43.53;;;38.88;;
47605;SDS011;55448;51.330;4.946;2022-08-19T01:16:54;43.92;;;37.97;;
47605;SDS011;55448;51.330;4.946;2022-08-19T01:19:27;44.70;;;37.28;;
47605;SDS011;55448;51.330;4.946;2022-08-19T01:22:09;39.92;;;33.67;;
47605;SDS011;55448;51.330;4.946;2022-08-19T01:24:39;39.05;;;33.38;;
47605;SDS011;55448;51.330;4.946;2022-08-19T01:27:06;45.95;;;35.70;;
47605;SDS011;55448;51.330;4.946;2022-08-19T01:29:32;40.58;;;35.30;;
47605;SDS011;55448;51.330;4.946;2022-08-19T01:31:58;39.80;;;35.45;;
47605;SDS011;55448;51.330;4.946;2022-08-19T01:34:26;47.13;;;36.72;;
47605;SDS011;55448;51.330;4.946;2022-08-19T01:36:51;45.90;;;40.65;;
47605;SDS011;55448;51.330;4.946;2022-08-19T01:39:19;43.78;;;39.05;;
47605;SDS011;55448;51.330;4.946;2022-08-19T01:41:47;48.00;;;39.80;;
47605;SDS011;55448;51.330;4.946;2022-08-19T01:44:14;48.63;;;41.70;;
47605;SDS011;55448;51.330;4.946;2022-08-19T01:46:41;47.88;;;42.08;;
47605;SDS011;55448;51.330;4.946;2022-08-19T01:49:07;50.42;;;41.85;;
47605;SDS011;55448;51.330;4.946;2022-08-19T01:51:33;56.10;;;45.08;;
47605;SDS011;55448;51.330;4.946;2022-08-19T01:54:00;57.95;;;45.17;;
47605;SDS011;55448;51.330;4.946;2022-08-19T01:56:26;55.28;;;45.25;;
47605;SDS011;55448;51.330;4.946;2022-08-19T01:59:00;50.60;;;42.72;;
47605;SDS011;55448;51.330;4.946;2022-08-19T02:01:28;61.63;;;48.00;;
47605;SDS011;55448;51.330;4.946;2022-08-19T02:03:57;60.17;;;48.42;;
47605;SDS011;55448;51.330;4.946;2022-08-19T02:06:23;73.22;;;53.13;;
47605;SDS011;55448;51.330;4.946;2022-08-19T02:08:49;61.67;;;49.85;;
47605;SDS011;55448;51.330;4.946;2022-08-19T02:11:23;68.50;;;51.60;;
47605;SDS011;55448;51.330;4.946;2022-08-19T02:13:54;71.68;;;53.00;;
47605;SDS011;55448;51.330;4.946;2022-08-19T02:16:20;71.70;;;53.42;;
47605;SDS011;55448;51.330;4.946;2022-08-19T02:18:46;81.30;;;56.72;;
47605;SDS011;55448;51.330;4.946;2022-08-19T02:21:16;75.30;;;56.00;;
47605;SDS011;55448;51.330;4.946;2022-08-19T02:23:43;69.07;;;54.35;;
47605;SDS011;55448;51.330;4.946;2022-08-19T02:26:10;79.28;;;55.83;;
47605;SDS011;55448;51.330;4.946;2022-08-19T02:28:37;80.43;;;57.70;;
47605;SDS011;55448;51.330;4.946;2022-08-19T02:31:03;77.38;;;56.17;;
47605;SDS011;55448;51.330;4.946;2022-08-19T02:33:34;77.63;;;57.88;;
47605;SDS011;55448;51.330;4.946;2022-08-19T02:35:59;79.60;;;60.55;;
47605;SDS011;55448;51.330;4.946;2022-08-19T02:38:29;78.40;;;56.95;;
47605;SDS011;55448;51.330;4.946;2022-08-19T02:40:56;77.85;;;54.25;;
47605;SDS011;55448;51.330;4.946;2022-08-19T02:43:30;72.43;;;54.88;;
47605;SDS011;55448;51.330;4.946;2022-08-19T02:46:01;75.03;;;53.63;;
47605;SDS011;55448;51.330;4.946;2022-08-19T02:48:27;76.00;;;54.40;;
47605;SDS011;55448;51.330;4.946;2022-08-19T02:50:53;78.57;;;56.00;;
47605;SDS011;55448;51.330;4.946;2022-08-19T02:53:22;81.00;;;54.67;;
47605;SDS011;55448;51.330;4.946;2022-08-19T02:55:51;74.70;;;53.85;;
47605;SDS011;55448;51.330;4.946;2022-08-19T02:58:18;73.50;;;52.80;;
47605;SDS011;55448;51.330;4.946;2022-08-19T03:00:46;74.85;;;53.33;;
47605;SDS011;55448;51.330;4.946;2022-08-19T03:03:14;78.43;;;54.47;;
47605;SDS011;55448;51.330;4.946;2022-08-19T03:05:40;74.07;;;52.55;;
47605;SDS011;55448;51.330;4.946;2022-08-19T03:08:07;75.78;;;54.65;;
47605;SDS011;55448;51.330;4.946;2022-08-19T03:10:46;70.95;;;52.17;;
47605;SDS011;55448;51.330;4.946;2022-08-19T03:13:13;86.65;;;58.05;;
47605;SDS011;55448;51.330;4.946;2022-08-19T03:15:44;85.30;;;58.58;;
47605;SDS011;55448;51.330;4.946;2022-08-19T03:20:43;88.28;;;58.10;;
47605;SDS011;55448;51.330;4.946;2022-08-19T03:23:10;88.00;;;61.38;;
47605;SDS011;55448;51.330;4.946;2022-08-19T03:25:40;94.00;;;61.88;;
47605;SDS011;55448;51.330;4.946;2022-08-19T03:28:09;89.20;;;61.50;;
47605;SDS011;55448;51.330;4.946;2022-08-19T03:30:39;97.43;;;63.92;;
47605;SDS011;55448;51.330;4.946;2022-08-19T03:33:09;98.83;;;63.87;;
47605;SDS011;55448;51.330;4.946;2022-08-19T03:35:37;95.07;;;62.75;;
47605;SDS011;55448;51.330;4.946;2022-08-19T03:38:03;95.95;;;63.63;;
47605;SDS011;55448;51.330;4.946;2022-08-19T03:40:31;99.60;;;62.70;;
47605;SDS011;55448;51.330;4.946;2022-08-19T03:42:57;95.80;;;62.35;;
47605;SDS011;55448;51.330;4.946;2022-08-19T03:45:23;95.03;;;63.13;;
47605;SDS011;55448;51.330;4.946;2022-08-19T03:47:49;92.95;;;62.33;;
47605;SDS011;55448;51.330;4.946;2022-08-19T03:50:15;96.97;;;62.83;;
47605;SDS011;55448;51.330;4.946;2022-08-19T03:52:41;91.75;;;62.45;;
47605;SDS011;55448;51.330;4.946;2022-08-19T03:55:07;88.32;;;60.38;;
47605;SDS011;55448;51.330;4.946;2022-08-19T03:57:33;96.32;;;61.38;;
47605;SDS011;55448;51.330;4.946;2022-08-19T03:59:59;102.28;;;64.80;;
47605;SDS011;55448;51.330;4.946;2022-08-19T04:02:26;98.05;;;64.30;;
47605;SDS011;55448;51.330;4.946;2022-08-19T04:04:52;106.63;;;65.93;;
47605;SDS011;55448;51.330;4.946;2022-08-19T04:07:19;100.88;;;64.20;;
47605;SDS011;55448;51.330;4.946;2022-08-19T04:09:46;105.97;;;65.07;;
47605;SDS011;55448;51.330;4.946;2022-08-19T04:12:12;96.18;;;62.70;;
47605;SDS011;55448;51.330;4.946;2022-08-19T04:14:39;105.18;;;64.88;;
47605;SDS011;55448;51.330;4.946;2022-08-19T04:17:05;106.53;;;65.78;;
47605;SDS011;55448;51.330;4.946;2022-08-19T04:19:31;100.55;;;64.68;;
47605;SDS011;55448;51.330;4.946;2022-08-19T04:21:59;108.18;;;68.00;;
47605;SDS011;55448;51.330;4.946;2022-08-19T04:24:25;100.82;;;65.43;;
47605;SDS011;55448;51.330;4.946;2022-08-19T04:26:51;107.13;;;67.85;;
47605;SDS011;55448;51.330;4.946;2022-08-19T04:29:18;113.72;;;68.55;;
47605;SDS011;55448;51.330;4.946;2022-08-19T04:31:47;109.72;;;62.40;;
47605;SDS011;55448;51.330;4.946;2022-08-19T04:34:14;119.05;;;68.82;;
47605;SDS011;55448;51.330;4.946;2022-08-19T04:36:43;108.22;;;66.85;;
47605;SDS011;55448;51.330;4.946;2022-08-19T04:39:19;108.10;;;67.88;;
47605;SDS011;55448;51.330;4.946;2022-08-19T04:41:47;115.35;;;67.82;;
47605;SDS011;55448;51.330;4.946;2022-08-19T04:44:32;123.47;;;69.45;;
47605;SDS011;55448;51.330;4.946;2022-08-19T04:46:58;121.18;;;71.00;;
47605;SDS011;55448;51.330;4.946;2022-08-19T04:49:25;105.72;;;67.20;;
47605;SDS011;55448;51.330;4.946;2022-08-19T04:51:51;125.97;;;72.70;;
47605;SDS011;55448;51.330;4.946;2022-08-19T04:54:19;128.63;;;73.03;;
47605;SDS011;55448;51.330;4.946;2022-08-19T04:56:48;138.18;;;75.50;;
47605;SDS011;55448;51.330;4.946;2022-08-19T04:59:15;138.23;;;77.47;;
47605;SDS011;55448;51.330;4.946;2022-08-19T05:01:42;137.93;;;78.80;;
47605;SDS011;55448;51.330;4.946;2022-08-19T05:04:08;144.35;;;81.70;;
47605;SDS011;55448;51.330;4.946;2022-08-19T05:06:34;150.75;;;83.13;;
47605;SDS011;55448;51.330;4.946;2022-08-19T05:09:04;136.25;;;79.60;;
47605;SDS011;55448;51.330;4.946;2022-08-19T05:11:31;140.15;;;78.50;;
47605;SDS011;55448;51.330;4.946;2022-08-19T05:13:59;142.38;;;79.28;;
47605;SDS011;55448;51.330;4.946;2022-08-19T05:16:26;136.77;;;80.40;;
47605;SDS011;55448;51.330;4.946;2022-08-19T05:18:52;128.45;;;75.88;;
47605;SDS011;55448;51.330;4.946;2022-08-19T05:21:36;124.45;;;72.97;;
47605;SDS011;55448;51.330;4.946;2022-08-19T05:24:22;115.78;;;72.65;;
47605;SDS011;55448;51.330;4.946;2022-08-19T05:26:49;119.95;;;70.75;;
47605;SDS011;55448;51.330;4.946;2022-08-19T05:29:17;123.43;;;71.47;;
47605;SDS011;55448;51.330;4.946;2022-08-19T05:31:44;110.78;;;66.85;;
47605;SDS011;55448;51.330;4.946;2022-08-19T05:34:12;114.82;;;67.05;;
47605;SDS011;55448;51.330;4.946;2022-08-19T05:36:40;117.95;;;68.72;;
47605;SDS011;55448;51.330;4.946;2022-08-19T05:39:08;112.45;;;67.07;;
47605;SDS011;55448;51.330;4.946;2022-08-19T05:41:40;109.93;;;65.53;;
47605;SDS011;55448;51.330;4.946;2022-08-19T05:44:07;110.15;;;63.30;;
47605;SDS011;55448;51.330;4.946;2022-08-19T05:46:34;100.22;;;62.05;;
47605;SDS011;55448;51.330;4.946;2022-08-19T05:49:02;101.22;;;61.22;;
47605;SDS011;55448;51.330;4.946;2022-08-19T05:51:31;90.80;;;55.00;;
47605;SDS011;55448;51.330;4.946;2022-08-19T05:53:57;92.18;;;59.30;;
47605;SDS011;55448;51.330;4.946;2022-08-19T05:56:23;99.63;;;59.13;;
47605;SDS011;55448;51.330;4.946;2022-08-19T05:58:49;87.68;;;57.63;;
47605;SDS011;55448;51.330;4.946;2022-08-19T06:01:16;90.70;;;56.33;;
47605;SDS011;55448;51.330;4.946;2022-08-19T06:03:43;89.43;;;56.17;;
47605;SDS011;55448;51.330;4.946;2022-08-19T06:06:12;77.55;;;50.90;;
47605;SDS011;55448;51.330;4.946;2022-08-19T06:08:39;84.95;;;55.97;;
47605;SDS011;55448;51.330;4.946;2022-08-19T06:11:12;87.50;;;54.88;;
47605;SDS011;55448;51.330;4.946;2022-08-19T06:13:39;84.05;;;53.75;;
47605;SDS011;55448;51.330;4.946;2022-08-19T06:16:05;85.32;;;52.22;;
47605;SDS011;55448;51.330;4.946;2022-08-19T06:18:31;84.80;;;50.50;;
47605;SDS011;55448;51.330;4.946;2022-08-19T06:20:58;80.35;;;49.05;;
47605;SDS011;55448;51.330;4.946;2022-08-19T06:23:24;83.97;;;49.95;;
47605;SDS011;55448;51.330;4.946;2022-08-19T06:25:50;74.82;;;45.53;;
47605;SDS011;55448;51.330;4.946;2022-08-19T06:28:16;79.18;;;49.50;;
47605;SDS011;55448;51.330;4.946;2022-08-19T06:30:42;77.85;;;48.47;;
47605;SDS011;55448;51.330;4.946;2022-08-19T06:33:07;74.25;;;45.95;;
47605;SDS011;55448;51.330;4.946;2022-08-19T06:35:37;70.82;;;43.47;;
47605;SDS011;55448;51.330;4.946;2022-08-19T06:40:29;66.45;;;41.83;;
47605;SDS011;55448;51.330;4.946;2022-08-19T06:42:55;66.65;;;42.28;;
47605;SDS011;55448;51.330;4.946;2022-08-19T06:45:29;69.70;;;41.13;;
47605;SDS011;55448;51.330;4.946;2022-08-19T06:47:55;71.03;;;41.83;;
47605;SDS011;55448;51.330;4.946;2022-08-19T06:50:22;60.55;;;39.38;;
47605;SDS011;55448;51.330;4.946;2022-08-19T06:52:48;67.95;;;41.63;;
47605;SDS011;55448;51.330;4.946;2022-08-19T06:55:14;64.00;;;38.80;;
47605;SDS011;55448;51.330;4.946;2022-08-19T06:57:40;67.30;;;39.20;;
47605;SDS011;55448;51.330;4.946;2022-08-19T07:00:07;61.63;;;36.47;;
47605;SDS011;55448;51.330;4.946;2022-08-19T07:02:39;52.80;;;35.42;;
47605;SDS011;55448;51.330;4.946;2022-08-19T07:05:06;57.90;;;35.97;;
47605;SDS011;55448;51.330;4.946;2022-08-19T07:07:32;56.55;;;35.45;;
47605;SDS011;55448;51.330;4.946;2022-08-19T07:09:58;56.40;;;35.47;;
47605;SDS011;55448;51.330;4.946;2022-08-19T07:12:24;59.70;;;36.22;;
47605;SDS011;55448;51.330;4.946;2022-08-19T07:14:49;50.95;;;32.17;;
47605;SDS011;55448;51.330;4.946;2022-08-19T07:17:15;59.65;;;33.10;;
47605;SDS011;55448;51.330;4.946;2022-08-19T07:19:41;50.80;;;34.33;;
47605;SDS011;55448;51.330;4.946;2022-08-19T07:22:08;55.42;;;34.55;;
47605;SDS011;55448;51.330;4.946;2022-08-19T07:24:34;49.38;;;31.63;;
47605;SDS011;55448;51.330;4.946;2022-08-19T07:27:02;52.72;;;33.92;;
47605;SDS011;55448;51.330;4.946;2022-08-19T07:29:30;55.83;;;33.92;;
47605;SDS011;55448;51.330;4.946;2022-08-19T07:31:58;47.47;;;33.00;;
47605;SDS011;55448;51.330;4.946;2022-08-19T07:34:26;54.88;;;33.28;;
47605;SDS011;55448;51.330;4.946;2022-08-19T07:36:53;47.25;;;31.10;;
47605;SDS011;55448;51.330;4.946;2022-08-19T07:39:22;45.95;;;27.55;;
47605;SDS011;55448;51.330;4.946;2022-08-19T07:41:52;49.88;;;26.10;;
47605;SDS011;55448;51.330;4.946;2022-08-19T07:44:19;46.25;;;24.88;;
47605;SDS011;55448;51.330;4.946;2022-08-19T07:46:47;36.58;;;25.05;;
47605;SDS011;55448;51.330;4.946;2022-08-19T07:49:14;41.22;;;23.27;;
47605;SDS011;55448;51.330;4.946;2022-08-19T07:51:53;37.22;;;21.90;;
47605;SDS011;55448;51.330;4.946;2022-08-19T07:54:28;32.80;;;22.30;;
47605;SDS011;55448;51.330;4.946;2022-08-19T07:56:56;30.92;;;20.13;;
47605;SDS011;55448;51.330;4.946;2022-08-19T07:59:23;39.47;;;22.15;;
47605;SDS011;55448;51.330;4.946;2022-08-19T08:01:49;33.22;;;22.02;;
47605;SDS011;55448;51.330;4.946;2022-08-19T08:04:16;41.38;;;25.67;;
47605;SDS011;55448;51.330;4.946;2022-08-19T08:07:06;42.15;;;26.30;;
47605;SDS011;55448;51.330;4.946;2022-08-19T08:09:51;39.40;;;22.95;;
47605;SDS011;55448;51.330;4.946;2022-08-19T08:12:19;35.78;;;24.20;;
47605;SDS011;55448;51.330;4.946;2022-08-19T08:14:54;34.13;;;23.02;;
47605;SDS011;55448;51.330;4.946;2022-08-19T08:17:22;44.38;;;28.88;;
47605;SDS011;55448;51.330;4.946;2022-08-19T08:19:50;32.30;;;23.00;;
47605;SDS011;55448;51.330;4.946;2022-08-19T08:22:19;48.03;;;25.88;;
47605;SDS011;55448;51.330;4.946;2022-08-19T08:25:06;37.75;;;22.35;;
47605;SDS011;55448;51.330;4.946;2022-08-19T08:27:42;39.10;;;23.23;;
47605;SDS011;55448;51.330;4.946;2022-08-19T08:30:10;37.47;;;22.92;;
47605;SDS011;55448;51.330;4.946;2022-08-19T08:32:38;36.53;;;24.92;;
47605;SDS011;55448;51.330;4.946;2022-08-19T08:35:05;35.55;;;23.33;;
47605;SDS011;55448;51.330;4.946;2022-08-19T08:37:32;34.28;;;21.33;;
47605;SDS011;55448;51.330;4.946;2022-08-19T08:39:59;32.55;;;22.80;;
47605;SDS011;55448;51.330;4.946;2022-08-19T08:42:32;31.50;;;21.92;;
47605;SDS011;55448;51.330;4.946;2022-08-19T08:45:12;26.90;;;18.85;;
47605;SDS011;55448;51.330;4.946;2022-08-19T08:47:41;34.03;;;19.60;;
47605;SDS011;55448;51.330;4.946;2022-08-19T08:50:22;27.25;;;19.00;;
47605;SDS011;55448;51.330;4.946;2022-08-19T08:52:55;31.50;;;19.92;;
47605;SDS011;55448;51.330;4.946;2022-08-19T08:55:26;28.23;;;19.48;;
47605;SDS011;55448;51.330;4.946;2022-08-19T08:58:16;28.83;;;18.58;;
47605;SDS011;55448;51.330;4.946;2022-08-19T09:00:45;24.77;;;18.17;;
47605;SDS011;55448;51.330;4.946;2022-08-19T09:03:33;27.33;;;18.40;;
47605;SDS011;55448;51.330;4.946;2022-08-19T09:06:07;21.25;;;15.68;;
47605;SDS011;55448;51.330;4.946;2022-08-19T09:08:57;25.13;;;16.80;;
47605;SDS011;55448;51.330;4.946;2022-08-19T09:11:33;21.73;;;14.77;;
47605;SDS011;55448;51.330;4.946;2022-08-19T09:16:57;22.23;;;13.50;;
47605;SDS011;55448;51.330;4.946;2022-08-19T09:19:23;15.10;;;10.73;;
47605;SDS011;55448;51.330;4.946;2022-08-19T09:21:49;17.48;;;10.73;;
47605;SDS011;55448;51.330;4.946;2022-08-19T09:24:15;19.70;;;11.88;;
47605;SDS011;55448;51.330;4.946;2022-08-19T09:26:41;18.15;;;11.65;;
47605;SDS011;55448;51.330;4.946;2022-08-19T09:29:08;16.20;;;10.50;;
47605;SDS011;55448;51.330;4.946;2022-08-19T09:31:34;16.98;;;9.70;;
47605;SDS011;55448;51.330;4.946;2022-08-19T09:34:01;16.58;;;9.02;;
47605;SDS011;55448;51.330;4.946;2022-08-19T09:36:29;12.90;;;8.65;;
47605;SDS011;55448;51.330;4.946;2022-08-19T09:39:02;13.52;;;7.88;;
47605;SDS011;55448;51.330;4.946;2022-08-19T09:41:28;11.00;;;6.75;;
47605;SDS011;55448;51.330;4.946;2022-08-19T09:43:55;12.68;;;7.65;;
47605;SDS011;55448;51.330;4.946;2022-08-19T09:46:24;14.70;;;9.57;;
47605;SDS011;55448;51.330;4.946;2022-08-19T09:48:51;13.73;;;8.80;;
47605;SDS011;55448;51.330;4.946;2022-08-19T09:51:19;16.00;;;9.38;;
47605;SDS011;55448;51.330;4.946;2022-08-19T09:53:47;19.02;;;10.45;;
47605;SDS011;55448;51.330;4.946;2022-08-19T09:56:20;19.55;;;9.52;;
47605;SDS011;55448;51.330;4.946;2022-08-19T09:58:47;14.07;;;9.35;;
47605;SDS011;55448;51.330;4.946;2022-08-19T10:01:20;15.93;;;10.00;;
47605;SDS011;55448;51.330;4.946;2022-08-19T10:03:49;16.13;;;10.18;;
47605;SDS011;55448;51.330;4.946;2022-08-19T10:06:17;17.33;;;9.23;;
47605;SDS011;55448;51.330;4.946;2022-08-19T10:08:43;10.10;;;8.07;;
47605;SDS011;55448;51.330;4.946;2022-08-19T10:11:10;16.25;;;8.40;;
47605;SDS011;55448;51.330;4.946;2022-08-19T10:13:36;11.80;;;7.65;;
47605;SDS011;55448;51.330;4.946;2022-08-19T10:16:04;18.00;;;7.28;;
47605;SDS011;55448;51.330;4.946;2022-08-19T10:18:31;12.30;;;6.72;;
47605;SDS011;55448;51.330;4.946;2022-08-19T10:21:06;13.93;;;7.45;;
47605;SDS011;55448;51.330;4.946;2022-08-19T10:23:34;10.90;;;5.47;;
47605;SDS011;55448;51.330;4.946;2022-08-19T10:26:02;11.82;;;7.03;;
47605;SDS011;55448;51.330;4.946;2022-08-19T10:28:31;12.48;;;7.35;;
47605;SDS011;55448;51.330;4.946;2022-08-19T10:31:05;15.27;;;5.93;;
47605;SDS011;55448;51.330;4.946;2022-08-19T10:33:36;11.38;;;5.80;;
47605;SDS011;55448;51.330;4.946;2022-08-19T10:36:03;11.27;;;6.40;;
47605;SDS011;55448;51.330;4.946;2022-08-19T10:38:34;10.00;;;6.40;;
47605;SDS011;55448;51.330;4.946;2022-08-19T10:41:11;14.85;;;7.60;;
47605;SDS011;55448;51.330;4.946;2022-08-19T10:43:39;11.60;;;5.78;;
47605;SDS011;55448;51.330;4.946;2022-08-19T10:46:06;13.85;;;5.72;;
47605;SDS011;55448;51.330;4.946;2022-08-19T10:48:33;10.88;;;6.00;;
47605;SDS011;55448;51.330;4.946;2022-08-19T10:50:59;15.45;;;6.85;;
47605;SDS011;55448;51.330;4.946;2022-08-19T10:53:44;9.45;;;6.65;;
47605;SDS011;55448;51.330;4.946;2022-08-19T10:56:10;13.68;;;6.38;;
47605;SDS011;55448;51.330;4.946;2022-08-19T10:58:54;13.68;;;6.18;;
47605;SDS011;55448;51.330;4.946;2022-08-19T11:01:21;11.38;;;7.00;;
47605;SDS011;55448;51.330;4.946;2022-08-19T11:03:47;9.32;;;6.15;;
47605;SDS011;55448;51.330;4.946;2022-08-19T11:06:13;11.15;;;7.07;;
47605;SDS011;55448;51.330;4.946;2022-08-19T11:08:38;12.77;;;7.35;;
47605;SDS011;55448;51.330;4.946;2022-08-19T11:11:06;10.82;;;5.60;;
47605;SDS011;55448;51.330;4.946;2022-08-19T11:13:33;10.65;;;5.63;;
47605;SDS011;55448;51.330;4.946;2022-08-19T11:16:12;7.97;;;5.28;;
47605;SDS011;55448;51.330;4.946;2022-08-19T11:18:44;8.52;;;4.72;;
47605;SDS011;55448;51.330;4.946;2022-08-19T11:21:14;9.50;;;5.28;;
47605;SDS011;55448;51.330;4.946;2022-08-19T11:23:42;7.82;;;4.97;;
47605;SDS011;55448;51.330;4.946;2022-08-19T11:26:09;7.78;;;4.80;;
47605;SDS011;55448;51.330;4.946;2022-08-19T11:28:35;11.00;;;5.05;;
47605;SDS011;55448;51.330;4.946;2022-08-19T11:31:01;9.63;;;5.00;;
47605;SDS011;55448;51.330;4.946;2022-08-19T11:33:34;8.43;;;5.38;;
47605;SDS011;55448;51.330;4.946;2022-08-19T11:36:00;13.45;;;5.95;;
47605;SDS011;55448;51.330;4.946;2022-08-19T11:38:26;8.43;;;4.53;;
47605;SDS011;55448;51.330;4.946;2022-08-19T11:40:56;9.35;;;5.22;;
47605;SDS011;55448;51.330;4.946;2022-08-19T11:43:22;10.57;;;4.78;;
47605;SDS011;55448;51.330;4.946;2022-08-19T11:45:49;9.32;;;4.40;;
47605;SDS011;55448;51.330;4.946;2022-08-19T11:48:14;7.55;;;4.85;;
47605;SDS011;55448;51.330;4.946;2022-08-19T11:50:40;4.40;;;3.55;;
47605;SDS011;55448;51.330;4.946;2022-08-19T11:53:08;8.05;;;4.47;;
47605;SDS011;55448;51.330;4.946;2022-08-19T11:55:38;7.18;;;4.07;;
47605;SDS011;55448;51.330;4.946;2022-08-19T11:58:05;5.50;;;4.03;;
47605;SDS011;55448;51.330;4.946;2022-08-19T12:00:32;6.88;;;3.65;;
47605;SDS011;55448;51.330;4.946;2022-08-19T12:03:00;9.50;;;4.30;;
47605;SDS011;55448;51.330;4.946;2022-08-19T12:05:26;7.32;;;5.00;;
47605;SDS011;55448;51.330;4.946;2022-08-19T12:07:52;7.82;;;4.50;;
47605;SDS011;55448;51.330;4.946;2022-08-19T12:10:19;7.65;;;4.40;;
47605;SDS011;55448;51.330;4.946;2022-08-19T12:12:46;9.27;;;5.60;;
47605;SDS011;55448;51.330;4.946;2022-08-19T12:15:12;14.93;;;6.22;;
47605;SDS011;55448;51.330;4.946;2022-08-19T12:17:39;6.45;;;4.90;;
47605;SDS011;55448;51.330;4.946;2022-08-19T12:20:08;10.30;;;5.13;;
47605;SDS011;55448;51.330;4.946;2022-08-19T12:22:36;16.50;;;4.38;;
47605;SDS011;55448;51.330;4.946;2022-08-19T12:25:03;11.23;;;4.35;;
47605;SDS011;55448;51.330;4.946;2022-08-19T12:27:30;6.15;;;3.70;;
47605;SDS011;55448;51.330;4.946;2022-08-19T12:29:56;8.70;;;4.20;;
47605;SDS011;55448;51.330;4.946;2022-08-19T12:32:22;5.85;;;3.30;;
47605;SDS011;55448;51.330;4.946;2022-08-19T12:34:49;7.30;;;3.55;;
47605;SDS011;55448;51.330;4.946;2022-08-19T12:37:15;3.72;;;3.03;;
47605;SDS011;55448;51.330;4.946;2022-08-19T12:39:41;4.57;;;2.78;;
47605;SDS011;55448;51.330;4.946;2022-08-19T12:42:09;6.72;;;3.22;;
47605;SDS011;55448;51.330;4.946;2022-08-19T12:44:37;5.20;;;3.13;;
47605;SDS011;55448;51.330;4.946;2022-08-19T12:47:04;7.22;;;2.65;;
47605;SDS011;55448;51.330;4.946;2022-08-19T12:49:31;6.90;;;3.35;;
47605;SDS011;55448;51.330;4.946;2022-08-19T12:51:59;15.60;;;2.97;;
47605;SDS011;55448;51.330;4.946;2022-08-19T12:54:25;31.05;;;6.90;;
47605;SDS011;55448;51.330;4.946;2022-08-19T12:56:51;6.70;;;2.92;;
47605;SDS011;55448;51.330;4.946;2022-08-19T12:59:17;4.93;;;2.85;;
47605;SDS011;55448;51.330;4.946;2022-08-19T13:01:43;5.95;;;3.28;;
47605;SDS011;55448;51.330;4.946;2022-08-19T13:04:09;6.03;;;3.03;;
47605;SDS011;55448;51.330;4.946;2022-08-19T13:06:36;7.65;;;2.90;;
47605;SDS011;55448;51.330;4.946;2022-08-19T13:09:02;5.43;;;2.92;;
47605;SDS011;55448;51.330;4.946;2022-08-19T13:11:29;4.07;;;2.75;;
47605;SDS011;55448;51.330;4.946;2022-08-19T13:13:59;6.78;;;3.22;;
47605;SDS011;55448;51.330;4.946;2022-08-19T13:16:26;4.45;;;2.55;;
47605;SDS011;55448;51.330;4.946;2022-08-19T13:18:52;5.53;;;3.10;;
47605;SDS011;55448;51.330;4.946;2022-08-19T13:21:20;6.10;;;3.00;;
47605;SDS011;55448;51.330;4.946;2022-08-19T13:23:48;8.93;;;3.10;;
47605;SDS011;55448;51.330;4.946;2022-08-19T13:26:14;10.68;;;3.85;;
47605;SDS011;55448;51.330;4.946;2022-08-19T13:28:41;9.63;;;3.80;;
47605;SDS011;55448;51.330;4.946;2022-08-19T13:31:45;5.35;;;3.30;;
47605;SDS011;55448;51.330;4.946;2022-08-19T13:34:31;7.65;;;3.35;;
47605;SDS011;55448;51.330;4.946;2022-08-19T13:36:59;7.15;;;2.88;;
47605;SDS011;55448;51.330;4.946;2022-08-19T13:39:27;8.23;;;3.55;;
47605;SDS011;55448;51.330;4.946;2022-08-19T13:41:54;5.70;;;3.72;;
47605;SDS011;55448;51.330;4.946;2022-08-19T13:44:20;7.03;;;4.05;;
47605;SDS011;55448;51.330;4.946;2022-08-19T13:46:46;6.97;;;3.40;;
47605;SDS011;55448;51.330;4.946;2022-08-19T13:49:14;4.15;;;3.58;;
47605;SDS011;55448;51.330;4.946;2022-08-19T13:51:40;5.72;;;3.72;;
47605;SDS011;55448;51.330;4.946;2022-08-19T13:54:08;6.18;;;3.60;;
47605;SDS011;55448;51.330;4.946;2022-08-19T13:56:35;6.13;;;3.60;;
47605;SDS011;55448;51.330;4.946;2022-08-19T13:59:08;6.40;;;3.50;;
47605;SDS011;55448;51.330;4.946;2022-08-19T14:01:34;6.05;;;3.60;;
47605;SDS011;55448;51.330;4.946;2022-08-19T14:04:00;5.82;;;3.30;;
47605;SDS011;55448;51.330;4.946;2022-08-19T14:06:26;9.05;;;4.40;;
47605;SDS011;55448;51.330;4.946;2022-08-19T14:08:51;14.77;;;3.75;;
47605;SDS011;55448;51.330;4.946;2022-08-19T14:11:17;6.05;;;3.80;;
47605;SDS011;55448;51.330;4.946;2022-08-19T14:13:43;7.45;;;3.70;;
47605;SDS011;55448;51.330;4.946;2022-08-19T14:16:11;11.07;;;4.18;;
47605;SDS011;55448;51.330;4.946;2022-08-19T14:18:38;7.30;;;4.10;;
47605;SDS011;55448;51.330;4.946;2022-08-19T14:21:04;9.52;;;4.13;;
47605;SDS011;55448;51.330;4.946;2022-08-19T14:23:31;7.70;;;4.22;;
47605;SDS011;55448;51.330;4.946;2022-08-19T14:26:05;8.23;;;4.20;;
47605;SDS011;55448;51.330;4.946;2022-08-19T14:28:32;8.57;;;3.97;;
47605;SDS011;55448;51.330;4.946;2022-08-19T14:30:58;11.27;;;4.50;;
47605;SDS011;55448;51.330;4.946;2022-08-19T14:33:24;6.95;;;4.53;;
47605;SDS011;55448;51.330;4.946;2022-08-19T14:35:50;5.85;;;4.63;;
47605;SDS011;55448;51.330;4.946;2022-08-19T14:38:16;7.72;;;4.80;;
47605;SDS011;55448;51.330;4.946;2022-08-19T14:40:43;11.63;;;4.20;;
47605;SDS011;55448;51.330;4.946;2022-08-19T14:43:09;8.75;;;3.58;;
47605;SDS011;55448;51.330;4.946;2022-08-19T14:45:36;11.52;;;3.90;;
47605;SDS011;55448;51.330;4.946;2022-08-19T14:48:04;11.52;;;3.78;;
47605;SDS011;55448;51.330;4.946;2022-08-19T14:50:31;5.97;;;3.78;;